createdAt,value
2022-08-21T00:01:04.295Z,38.47
2022-08-21T00:03:11.531Z,38.69
2022-08-21T00:05:13.161Z,38.38
2022-08-21T00:07:15.048Z,39.12
2022-08-21T00:09:16.667Z,39.01
2022-08-21T00:11:18.921Z,39.02
2022-08-21T00:13:21.045Z,38.44
2022-08-21T00:15:33.506Z,39.25
2022-08-21T00:17:35.475Z,38.51
2022-08-21T00:19:38.456Z,38.40
2022-08-21T00:21:40.218Z,38.73
2022-08-21T00:23:45.842Z,38.88
2022-08-21T00:25:47.465Z,38.76
2022-08-21T00:27:49.094Z,38.67
2022-08-21T00:29:50.693Z,38.93
2022-08-21T00:31:52.271Z,39.44
2022-08-21T00:34:00.617Z,38.28
2022-08-21T00:36:04.976Z,39.95
2022-08-21T00:38:08.043Z,39.03
2022-08-21T00:40:13.676Z,38.67
2022-08-21T00:42:15.838Z,38.82
2022-08-21T00:44:17.570Z,39.80
2022-08-21T00:46:19.486Z,39.48
2022-08-21T00:48:22.075Z,39.53
2022-08-21T00:50:26.621Z,39.90
2022-08-21T00:52:32.949Z,39.87
2022-08-21T00:54:34.804Z,39.75
2022-08-21T00:56:36.795Z,39.15
2022-08-21T00:58:40.002Z,39.46
2022-08-21T01:00:48.046Z,39.92
2022-08-21T01:02:49.665Z,39.50
2022-08-21T01:04:51.361Z,39.92
2022-08-21T01:06:53.739Z,40.08
2022-08-21T01:08:56.746Z,39.91
2022-08-21T01:10:59.721Z,40.49
2022-08-21T01:13:04.963Z,40.94
2022-08-21T01:15:08.226Z,40.42
2022-08-21T01:17:11.351Z,40.17
2022-08-21T01:19:13.969Z,40.14
2022-08-21T01:21:19.757Z,40.22
2022-08-21T01:23:21.387Z,40.59
2022-08-21T01:25:23.231Z,40.56
2022-08-21T01:27:24.775Z,40.42
2022-08-21T01:29:33.006Z,40.09
2022-08-21T01:31:34.926Z,40.63
2022-08-21T01:33:36.926Z,40.83
2022-08-21T01:35:39.126Z,40.31
2022-08-21T01:37:42.504Z,41.17
2022-08-21T01:39:44.435Z,40.73
2022-08-21T01:41:46.183Z,40.98
2022-08-21T01:43:47.839Z,40.61
2022-08-21T01:45:49.364Z,40.70
2022-08-21T01:47:50.936Z,40.67
2022-08-21T01:49:52.712Z,41.16
2022-08-21T01:51:54.520Z,41.31
2022-08-21T01:53:57.508Z,41.04
2022-08-21T01:55:59.123Z,40.48
2022-08-21T01:58:00.692Z,41.29
2022-08-21T02:00:04.780Z,40.58
2022-08-21T02:02:06.733Z,40.52
2022-08-21T02:04:09.557Z,40.82
2022-08-21T02:06:14.920Z,41.17
2022-08-21T02:08:16.582Z,40.55
2022-08-21T02:10:25.422Z,41.01
2022-08-21T02:12:26.966Z,41.14
2022-08-21T02:14:32.755Z,40.53
2022-08-21T02:16:34.908Z,39.85
2022-08-21T02:18:37.035Z,40.34
2022-08-21T02:20:42.472Z,40.84
2022-08-21T02:22:44.038Z,40.83
2022-08-21T02:24:54.557Z,41.25
2022-08-21T02:26:58.172Z,41.53
2022-08-21T02:29:00.017Z,41.51
2022-08-21T02:31:02.097Z,41.72
2022-08-21T02:33:03.789Z,42.01
2022-08-21T02:35:06.280Z,41.98
2022-08-21T02:37:07.931Z,42.41
2022-08-21T02:39:09.545Z,42.48
2022-08-21T02:41:14.366Z,42.16
2022-08-21T02:43:18.359Z,42.05
2022-08-21T02:45:20.831Z,41.94
2022-08-21T02:47:22.551Z,42.27
2022-08-21T02:49:24.184Z,42.66
2022-08-21T02:51:25.757Z,42.77
2022-08-21T02:53:28.558Z,42.77
2022-08-21T02:55:32.263Z,42.87
2022-08-21T02:57:33.857Z,43.47
2022-08-21T02:59:36.788Z,43.21
2022-08-21T03:01:38.429Z,43.19
2022-08-21T03:03:42.696Z,42.78
2022-08-21T03:05:45.052Z,42.70
2022-08-21T03:07:47.917Z,42.76
2022-08-21T03:09:55.556Z,43.26
2022-08-21T03:11:57.572Z,43.16
2022-08-21T03:13:59.136Z,43.78
2022-08-21T03:16:02.147Z,43.45
2022-08-21T03:18:09.380Z,43.98
2022-08-21T03:20:11.791Z,43.45
2022-08-21T03:22:13.467Z,43.75
2022-08-21T03:24:15.087Z,43.90
2022-08-21T03:26:19.833Z,44.30
2022-08-21T03:28:23.140Z,44.44
2022-08-21T03:30:24.906Z,44.41
2022-08-21T03:32:28.549Z,44.28
2022-08-21T03:34:30.128Z,44.22
2022-08-21T03:36:31.705Z,44.77
2022-08-21T03:38:34.768Z,44.76
2022-08-21T03:40:36.631Z,44.60
2022-08-21T03:42:38.246Z,44.72
2022-08-21T03:44:39.878Z,44.89
2022-08-21T03:46:41.489Z,44.81
2022-08-21T03:48:44.489Z,45.05
2022-08-21T03:50:48.933Z,45.15
2022-08-21T03:52:50.600Z,45.11
2022-08-21T03:54:52.231Z,45.52
2022-08-21T03:56:53.874Z,45.47
2022-08-21T03:58:55.511Z,45.36
2022-08-21T04:01:00.053Z,45.54
2022-08-21T04:03:01.591Z,45.77
2022-08-21T04:05:06.165Z,45.49
2022-08-21T04:07:07.709Z,45.20
2022-08-21T04:09:09.323Z,45.07
2022-08-21T04:11:10.905Z,45.06
2022-08-21T04:13:12.474Z,44.49
2022-08-21T04:15:14.043Z,44.89
2022-08-21T04:17:15.638Z,45.17
2022-08-21T04:19:17.194Z,45.33
2022-08-21T04:21:20.323Z,45.08
2022-08-21T04:23:26.583Z,44.91
2022-08-21T04:25:28.197Z,44.31
2022-08-21T04:27:29.759Z,44.28
2022-08-21T04:29:31.393Z,44.61
2022-08-21T04:31:33.233Z,44.96
2022-08-21T04:33:34.827Z,45.25
2022-08-21T04:35:36.467Z,45.17
2022-08-21T04:37:42.013Z,44.74
2022-08-21T04:39:44.050Z,45.22
2022-08-21T04:41:45.679Z,45.03
2022-08-21T04:43:47.254Z,44.40
2022-08-21T04:45:49.906Z,44.77
2022-08-21T04:47:53.488Z,45.20
2022-08-21T04:49:55.154Z,44.81
2022-08-21T04:51:57.113Z,44.97
2022-08-21T04:54:03.235Z,44.65
2022-08-21T04:56:09.079Z,45.60
2022-08-21T04:58:13.769Z,45.23
2022-08-21T05:00:16.809Z,45.01
2022-08-21T05:02:19.569Z,45.11
2022-08-21T05:04:24.933Z,45.34
2022-08-21T05:06:29.233Z,45.02
2022-08-21T05:08:30.843Z,45.85
2022-08-21T05:10:34.000Z,45.40
2022-08-21T05:12:36.083Z,45.19
2022-08-21T05:14:38.525Z,45.50
2022-08-21T05:16:40.217Z,45.52
2022-08-21T05:18:41.811Z,45.98
2022-08-21T05:20:43.509Z,45.49
2022-08-21T05:22:45.105Z,45.82
2022-08-21T05:24:46.717Z,45.97
2022-08-21T05:26:49.610Z,45.56
2022-08-21T05:28:51.404Z,45.98
2022-08-21T05:30:53.105Z,45.94
2022-08-21T05:32:58.073Z,46.16
2022-08-21T05:34:59.785Z,46.05
2022-08-21T05:37:05.614Z,46.20
2022-08-21T05:39:09.204Z,46.03
2022-08-21T05:41:11.509Z,45.94
2022-08-21T05:43:15.172Z,45.94
2022-08-21T05:45:16.884Z,46.34
2022-08-21T05:47:38.478Z,46.16
2022-08-21T05:49:40.104Z,45.49
2022-08-21T05:51:42.091Z,45.81
2022-08-21T05:53:44.474Z,46.12
2022-08-21T05:55:47.080Z,45.93
2022-08-21T05:57:51.540Z,46.62
2022-08-21T05:59:54.564Z,45.53
2022-08-21T06:01:56.415Z,46.38
2022-08-21T06:03:58.033Z,45.68
2022-08-21T06:05:59.809Z,46.11
2022-08-21T06:08:01.447Z,45.47
2022-08-21T06:10:03.981Z,45.73
2022-08-21T06:12:06.767Z,45.49
2022-08-21T06:14:08.348Z,45.45
2022-08-21T06:16:15.822Z,45.65
2022-08-21T06:18:18.215Z,45.65
2022-08-21T06:20:20.295Z,45.99
2022-08-21T06:22:24.526Z,45.74
2022-08-21T06:24:26.405Z,45.09
2022-08-21T06:26:28.060Z,46.07
2022-08-21T06:28:29.800Z,45.41
2022-08-21T06:30:31.581Z,45.60
2022-08-21T06:32:35.891Z,45.30
2022-08-21T06:34:38.084Z,45.67
2022-08-21T06:36:39.763Z,46.13
2022-08-21T06:38:41.504Z,45.63
2022-08-21T06:40:50.766Z,45.45
2022-08-21T06:42:53.928Z,45.53
2022-08-21T06:44:55.867Z,45.45
2022-08-21T06:46:57.518Z,45.56
2022-08-21T06:49:00.452Z,45.20
2022-08-21T06:51:02.327Z,45.11
2022-08-21T06:53:06.401Z,44.64
2022-08-21T06:55:09.671Z,44.73
2022-08-21T06:57:11.296Z,44.54
2022-08-21T06:59:13.065Z,44.17
2022-08-21T07:01:14.801Z,44.15
2022-08-21T07:03:25.523Z,44.45
2022-08-21T07:05:30.038Z,44.03
2022-08-21T07:07:31.626Z,43.60
2022-08-21T07:09:33.232Z,42.95
2022-08-21T07:11:39.430Z,43.15
2022-08-21T07:13:49.340Z,43.42
2022-08-21T07:15:50.976Z,43.83
2022-08-21T07:17:52.497Z,43.63
2022-08-21T07:19:54.870Z,43.44
2022-08-21T07:22:00.927Z,42.93
2022-08-21T07:24:03.253Z,42.77
2022-08-21T07:26:05.253Z,42.92
2022-08-21T07:28:06.886Z,42.44
2022-08-21T07:30:09.456Z,42.68
2022-08-21T07:32:11.112Z,42.44
2022-08-21T07:34:13.409Z,41.34
2022-08-21T07:36:15.204Z,41.84
2022-08-21T07:38:18.192Z,41.22
2022-08-21T07:40:20.105Z,42.46
2022-08-21T07:42:21.700Z,41.61
2022-08-21T07:44:23.296Z,42.54
2022-08-21T07:46:25.852Z,41.98
2022-08-21T07:48:27.423Z,42.09
2022-08-21T07:50:29.016Z,41.48
2022-08-21T07:52:31.230Z,39.04
2022-08-21T07:54:35.129Z,39.68
2022-08-21T07:56:36.706Z,39.22
2022-08-21T07:58:38.369Z,40.58
2022-08-21T08:00:41.018Z,40.76
2022-08-21T08:02:46.122Z,38.66
2022-08-21T08:04:51.014Z,39.32
2022-08-21T08:06:52.789Z,40.40
2022-08-21T08:08:54.379Z,37.59
2022-08-21T08:10:58.940Z,38.62
2022-08-21T08:13:01.304Z,39.66
2022-08-21T08:15:05.175Z,40.39
2022-08-21T08:17:06.775Z,40.11
2022-08-21T08:19:08.404Z,39.91
2022-08-21T08:21:10.749Z,39.17
2022-08-21T08:23:12.815Z,37.53
2022-08-21T08:25:15.557Z,38.15
2022-08-21T08:27:19.186Z,38.76
2022-08-21T08:29:21.349Z,39.69
2022-08-21T08:31:22.939Z,37.61
2022-08-21T08:33:24.971Z,37.74
2022-08-21T08:35:27.183Z,38.64
2022-08-21T08:37:30.972Z,40.23
2022-08-21T08:39:36.833Z,40.22
2022-08-21T08:41:41.974Z,39.11
2022-08-21T08:43:51.596Z,39.74
2022-08-21T08:45:56.493Z,37.63
2022-08-21T08:48:04.005Z,37.62
2022-08-21T08:50:09.869Z,39.25
2022-08-21T08:52:19.422Z,39.02
2022-08-21T08:54:30.370Z,38.96
2022-08-21T08:56:36.362Z,36.50
2022-08-21T08:58:41.614Z,37.58
2022-08-21T09:00:48.112Z,37.82
2022-08-21T09:02:55.088Z,39.50
2022-08-21T09:04:57.613Z,38.70
2022-08-21T09:07:11.858Z,39.37
2022-08-21T09:09:26.474Z,37.75
2022-08-21T09:11:36.282Z,39.26
2022-08-21T09:13:51.302Z,36.58
2022-08-21T09:16:06.434Z,38.07
2022-08-21T09:18:21.736Z,36.77
2022-08-21T09:20:33.272Z,36.76
2022-08-21T09:22:42.607Z,37.30
2022-08-21T09:25:01.111Z,39.26
2022-08-21T09:27:07.733Z,39.29
2022-08-21T09:29:12.713Z,36.62
2022-08-21T09:31:23.523Z,36.62
2022-08-21T09:33:25.137Z,36.04
2022-08-21T09:35:27.016Z,37.67
2022-08-21T09:37:30.443Z,37.97
2022-08-21T09:39:45.576Z,34.77
2022-08-21T09:41:57.124Z,35.68
2022-08-21T09:43:59.637Z,34.68
2022-08-21T09:46:07.996Z,36.38
2022-08-21T09:48:13.655Z,36.68
2022-08-21T09:50:18.695Z,34.71
2022-08-21T09:52:22.556Z,36.36
2022-08-21T09:54:30.835Z,35.38
2022-08-21T09:56:35.935Z,33.56
2022-08-21T09:58:40.142Z,35.51
2022-08-21T10:00:41.923Z,31.33
2022-08-21T10:02:43.599Z,30.95
2022-08-21T10:04:51.615Z,31.40
2022-08-21T10:06:54.726Z,31.24
2022-08-21T10:09:08.258Z,34.72
2022-08-21T10:11:12.924Z,33.94
2022-08-21T10:13:21.572Z,35.10
2022-08-21T10:15:33.775Z,35.56
2022-08-21T10:17:44.660Z,32.16
2022-08-21T10:19:55.624Z,30.14
2022-08-21T10:22:09.992Z,31.45
2022-08-21T10:24:31.203Z,32.28
2022-08-21T10:26:44.390Z,31.10
2022-08-21T10:28:54.965Z,31.10
2022-08-21T10:31:01.292Z,34.08
2022-08-21T10:33:21.822Z,33.31
2022-08-21T10:35:27.689Z,31.93
2022-08-21T10:37:49.677Z,31.30
2022-08-21T10:40:02.320Z,30.37
2022-08-21T10:42:18.366Z,29.83
2022-08-21T10:44:31.069Z,30.49
2022-08-21T10:46:43.307Z,33.84
2022-08-21T10:48:51.389Z,32.92
2022-08-21T10:51:00.789Z,32.96
2022-08-21T10:53:32.354Z,33.49
2022-08-21T10:55:40.107Z,33.11
2022-08-21T10:57:45.676Z,32.75
2022-08-21T10:59:56.223Z,33.04
2022-08-21T11:02:04.214Z,30.72
2022-08-21T11:04:14.100Z,32.99
2022-08-21T11:06:23.418Z,30.31
2022-08-21T11:08:30.202Z,33.03
2022-08-21T11:10:40.800Z,28.69
2022-08-21T11:13:02.212Z,29.67
2022-08-21T11:15:28.689Z,27.88
2022-08-21T11:17:36.819Z,28.39
2022-08-21T11:19:46.241Z,29.96
2022-08-21T11:21:59.132Z,29.69
2022-08-21T11:24:07.820Z,30.71
2022-08-21T11:26:14.475Z,28.38
2022-08-21T11:28:23.621Z,29.25
2022-08-21T11:30:33.264Z,27.66
2022-08-21T11:32:57.396Z,25.30
2022-08-21T11:35:08.386Z,26.82
2022-08-21T11:37:20.790Z,26.19
2022-08-21T11:39:33.394Z,24.88
2022-08-21T11:41:41.790Z,22.54
2022-08-21T11:43:46.368Z,22.49
2022-08-21T11:45:51.397Z,22.42
2022-08-21T11:48:02.199Z,21.30
2022-08-21T11:50:34.855Z,24.35
2022-08-21T11:52:41.586Z,23.78
2022-08-21T11:54:46.964Z,23.67
2022-08-21T11:56:53.992Z,25.14
2022-08-21T11:58:59.205Z,23.88
2022-08-21T12:01:05.929Z,23.39
2022-08-21T12:03:11.665Z,23.60
2022-08-21T12:05:27.717Z,25.97
2022-08-21T12:07:34.960Z,22.66
2022-08-21T12:09:37.983Z,25.89
2022-08-21T12:11:48.710Z,26.03
2022-08-21T12:13:56.013Z,22.39
2022-08-21T12:16:07.315Z,21.44
2022-08-21T12:18:22.981Z,20.69
2022-08-21T12:20:37.007Z,22.19
2022-08-21T12:22:41.793Z,24.52
2022-08-21T12:24:48.750Z,21.92
2022-08-21T12:26:53.594Z,23.34
2022-08-21T12:29:14.785Z,21.80
2022-08-21T12:31:22.800Z,22.66
2022-08-21T12:33:31.548Z,21.28
2022-08-21T12:35:38.308Z,22.12
2022-08-21T12:37:42.732Z,20.30
2022-08-21T12:39:49.605Z,20.08
2022-08-21T12:42:00.034Z,19.21
2022-08-21T12:44:09.625Z,21.74
2022-08-21T12:46:18.192Z,23.13
2022-08-21T12:48:26.029Z,20.26
2022-08-21T12:50:36.242Z,22.73
2022-08-21T12:52:41.807Z,19.62
2022-08-21T12:54:45.984Z,22.51
2022-08-21T12:56:57.124Z,22.81
2022-08-21T12:59:04.422Z,20.01
2022-08-21T13:01:18.236Z,20.84
2022-08-21T13:03:22.513Z,23.02
2022-08-21T13:05:30.819Z,23.84
2022-08-21T13:07:35.405Z,24.87
2022-08-21T13:09:40.418Z,25.04
2022-08-21T13:11:46.454Z,25.38
2022-08-21T13:13:50.191Z,21.11
2022-08-21T13:15:58.639Z,24.36
2022-08-21T13:18:01.697Z,22.46
2022-08-21T13:20:07.428Z,22.33
2022-08-21T13:22:33.085Z,22.01
2022-08-21T13:24:42.898Z,21.15
2022-08-21T13:26:46.836Z,19.26
2022-08-21T13:28:50.069Z,18.31
2022-08-21T13:30:54.274Z,18.64
2022-08-21T13:32:59.270Z,17.51
2022-08-21T13:35:09.497Z,18.78
2022-08-21T13:37:12.629Z,17.76
2022-08-21T13:39:19.440Z,17.95
2022-08-21T13:41:23.443Z,18.15
2022-08-21T13:43:31.321Z,18.09
2022-08-21T13:45:33.976Z,18.92
2022-08-21T13:47:35.704Z,18.82
2022-08-21T13:49:41.318Z,18.34
2022-08-21T13:51:43.772Z,15.46
2022-08-21T13:53:48.379Z,16.60
2022-08-21T13:55:50.665Z,17.47
2022-08-21T13:58:00.488Z,15.91
2022-08-21T14:00:19.108Z,16.48
2022-08-21T14:02:24.341Z,18.06
2022-08-21T14:04:32.522Z,15.74
2022-08-21T14:06:37.541Z,16.22
2022-08-21T14:08:40.645Z,18.66
2022-08-21T14:10:45.636Z,17.91
2022-08-21T14:12:49.961Z,20.59
2022-08-21T14:14:53.239Z,17.49
2022-08-21T14:16:58.666Z,18.44
2022-08-21T14:19:10.706Z,20.63
2022-08-21T14:21:12.449Z,21.04
2022-08-21T14:23:24.993Z,18.27
2022-08-21T14:25:32.370Z,19.72
2022-08-21T14:27:34.693Z,18.80
2022-08-21T14:29:38.626Z,20.55
2022-08-21T14:31:43.419Z,19.47
2022-08-21T14:33:47.243Z,20.08
2022-08-21T14:35:48.827Z,22.12
2022-08-21T14:37:51.326Z,23.05
2022-08-21T14:39:53.553Z,22.57
2022-08-21T14:41:57.424Z,23.61
2022-08-21T14:44:08.162Z,23.85
2022-08-21T14:46:13.119Z,24.40
2022-08-21T14:48:15.188Z,20.41
2022-08-21T14:50:18.304Z,23.79
2022-08-21T14:52:19.924Z,22.34
2022-08-21T14:54:22.520Z,25.62
2022-08-21T14:56:33.047Z,24.71
2022-08-21T14:58:37.280Z,21.61
2022-08-21T15:00:38.905Z,20.98
2022-08-21T15:02:40.635Z,25.82
2022-08-21T15:04:42.256Z,25.94
2022-08-21T15:06:45.262Z,26.48
2022-08-21T15:08:46.848Z,26.61
2022-08-21T15:11:10.531Z,24.48
2022-08-21T15:13:10.601Z,21.86
2022-08-21T15:15:12.387Z,23.83
2022-08-21T15:17:19.564Z,23.33
2022-08-21T15:19:21.921Z,22.79
2022-08-21T15:21:23.541Z,22.10
2022-08-21T15:23:26.515Z,22.96
2022-08-21T15:25:28.781Z,22.15
2022-08-21T15:27:30.478Z,22.26
2022-08-21T15:29:33.407Z,25.24
2022-08-21T15:31:35.775Z,23.80
2022-08-21T15:33:37.353Z,23.89
2022-08-21T15:35:41.125Z,22.78
2022-08-21T15:37:42.816Z,22.15
2022-08-21T15:39:49.687Z,23.84
2022-08-21T15:41:55.601Z,23.68
2022-08-21T15:43:57.215Z,23.95
2022-08-21T15:46:00.153Z,25.98
2022-08-21T15:48:01.932Z,26.67
2022-08-21T15:50:06.906Z,27.00
2022-08-21T15:52:08.500Z,27.02
2022-08-21T15:54:10.165Z,26.89
2022-08-21T15:56:21.129Z,27.00
2022-08-21T15:58:23.113Z,22.92
2022-08-21T16:00:25.011Z,26.33
2022-08-21T16:02:29.860Z,25.62
2022-08-21T16:04:31.424Z,26.85
2022-08-21T16:06:38.558Z,26.83
2022-08-21T16:08:55.037Z,26.29
2022-08-21T16:10:56.719Z,27.16
2022-08-21T16:13:02.801Z,23.69
2022-08-21T16:15:08.344Z,26.62
2022-08-21T16:17:12.130Z,24.39
2022-08-21T16:19:14.957Z,25.71
2022-08-21T16:21:17.177Z,27.13
2022-08-21T16:23:19.617Z,27.25
2022-08-21T16:25:21.875Z,22.48
2022-08-21T16:27:27.383Z,23.13
2022-08-21T16:29:35.941Z,22.82
2022-08-21T16:31:38.335Z,25.52
2022-08-21T16:33:42.345Z,24.88
2022-08-21T16:35:46.918Z,23.24
2022-08-21T16:37:52.950Z,24.20
2022-08-21T16:39:55.151Z,22.88
2022-08-21T16:41:56.823Z,22.98
2022-08-21T16:43:58.604Z,23.00
2022-08-21T16:46:02.325Z,22.96
2022-08-21T16:48:03.976Z,23.16
2022-08-21T16:50:07.160Z,22.86
2022-08-21T16:52:11.153Z,23.29
2022-08-21T16:54:15.736Z,25.10
2022-08-21T16:56:18.504Z,23.85
2022-08-21T16:58:26.720Z,27.21
2022-08-21T17:00:28.496Z,23.25
2022-08-21T17:02:36.509Z,26.00
2022-08-21T17:04:38.201Z,23.34
2022-08-21T17:06:39.908Z,23.57
2022-08-21T17:08:42.055Z,26.16
2022-08-21T17:10:47.226Z,25.46
2022-08-21T17:12:53.698Z,24.03
2022-08-21T17:14:57.290Z,25.84
2022-08-21T17:17:01.062Z,26.04
2022-08-21T17:19:04.740Z,27.04
2022-08-21T17:21:06.576Z,24.50
2022-08-21T17:23:08.649Z,24.76
2022-08-21T17:25:11.047Z,26.48
2022-08-21T17:27:12.698Z,24.36
2022-08-21T17:29:15.266Z,24.33
2022-08-21T17:31:17.198Z,24.43
2022-08-21T17:33:19.899Z,25.82
2022-08-21T17:35:23.879Z,25.78
2022-08-21T17:37:29.164Z,25.84
2022-08-21T17:39:31.072Z,25.77
2022-08-21T17:41:33.390Z,25.08
2022-08-21T17:43:35.153Z,25.78
2022-08-21T17:45:37.176Z,27.43
2022-08-21T17:47:39.695Z,27.47
2022-08-21T17:49:41.441Z,27.83
2022-08-21T17:51:44.365Z,27.67
2022-08-21T17:53:46.177Z,28.86
2022-08-21T17:55:47.827Z,27.90
2022-08-21T17:57:51.678Z,29.01
2022-08-21T17:59:58.054Z,27.79
2022-08-21T18:02:00.395Z,28.17
2022-08-21T18:04:02.279Z,28.00
2022-08-21T18:06:04.121Z,27.97
2022-08-21T18:08:07.026Z,28.57
2022-08-21T18:10:12.487Z,28.12
2022-08-21T18:12:14.901Z,27.61
2022-08-21T18:14:16.641Z,27.94
2022-08-21T18:16:18.891Z,26.64
2022-08-21T18:18:20.605Z,26.80
2022-08-21T18:20:23.441Z,27.04
2022-08-21T18:22:25.034Z,26.87
2022-08-21T18:24:28.146Z,28.43
2022-08-21T18:26:32.661Z,29.18
2022-08-21T18:28:36.372Z,26.95
2022-08-21T18:30:41.421Z,26.83
2022-08-21T18:32:43.357Z,28.19
2022-08-21T18:34:45.048Z,28.35
2022-08-21T18:36:46.714Z,27.46
2022-08-21T18:38:48.309Z,27.41
2022-08-21T18:40:55.910Z,26.88
2022-08-21T18:43:00.428Z,26.43
2022-08-21T18:45:08.326Z,26.03
2022-08-21T18:47:13.630Z,26.30
2022-08-21T18:49:16.862Z,25.88
2022-08-21T18:51:18.521Z,27.08
2022-08-21T18:55:43.805Z,27.12
2022-08-21T18:57:47.256Z,27.74
2022-08-21T18:59:49.620Z,26.44
2022-08-21T19:01:51.484Z,27.11
2022-08-21T19:03:53.069Z,27.10
2022-08-21T19:05:55.176Z,27.47
2022-08-21T19:07:58.759Z,27.99
2022-08-21T19:10:24.105Z,28.11
2022-08-21T19:12:26.202Z,27.83
2022-08-21T19:14:32.867Z,28.23
2022-08-21T19:16:34.936Z,27.84
2022-08-21T19:18:40.671Z,27.37
2022-08-21T19:20:43.036Z,27.66
2022-08-21T19:22:53.534Z,28.75
2022-08-21T19:24:55.587Z,27.79
2022-08-21T19:26:57.448Z,27.90
2022-08-21T19:29:05.364Z,28.43
2022-08-21T19:33:39.610Z,28.00
2022-08-21T19:35:41.271Z,28.92
2022-08-21T19:37:42.891Z,28.63
2022-08-21T19:39:48.654Z,29.28
2022-08-21T19:41:54.657Z,27.59
2022-08-21T19:43:59.636Z,28.54
2022-08-21T19:46:03.650Z,28.16
2022-08-21T19:48:06.914Z,28.23
2022-08-21T19:50:17.800Z,28.13
2022-08-21T19:52:22.980Z,28.74
2022-08-21T19:54:28.394Z,28.55
2022-08-21T19:56:32.925Z,28.41
2022-08-21T19:58:39.040Z,29.36
2022-08-21T20:00:40.712Z,28.70
2022-08-21T20:02:58.840Z,28.77
2022-08-21T20:05:02.450Z,29.38
2022-08-21T20:07:04.342Z,29.03
2022-08-21T20:09:10.226Z,29.43
2022-08-21T20:11:15.015Z,29.50
2022-08-21T20:13:16.985Z,29.05
2022-08-21T20:15:22.065Z,30.06
2022-08-21T20:17:24.331Z,30.22
2022-08-21T20:19:25.966Z,29.90
2022-08-21T20:21:43.701Z,29.58
2022-08-21T20:23:49.308Z,30.15
2022-08-21T20:25:51.513Z,29.25
2022-08-21T20:27:53.140Z,29.82
2022-08-21T20:29:55.313Z,29.85
2022-08-21T20:31:57.054Z,29.72
2022-08-21T20:33:59.096Z,29.79
2022-08-21T20:36:00.797Z,29.91
2022-08-21T20:38:03.855Z,30.05
2022-08-21T20:40:08.524Z,30.02
2022-08-21T20:42:11.006Z,30.03
2022-08-21T20:44:13.557Z,30.19
2022-08-21T20:46:19.052Z,30.08
2022-08-21T20:48:24.971Z,30.72
2022-08-21T20:50:29.284Z,30.04
2022-08-21T20:52:33.388Z,29.55
2022-08-21T20:54:47.772Z,29.57
2022-08-21T20:56:52.705Z,29.82
2022-08-21T20:59:01.790Z,29.77
2022-08-21T21:01:06.733Z,30.41
2022-08-21T21:03:13.682Z,30.44
2022-08-21T21:05:18.998Z,30.79
2022-08-21T21:07:29.749Z,31.21
2022-08-21T21:09:41.201Z,30.59
2022-08-21T21:11:49.961Z,31.29
2022-08-21T21:13:56.410Z,32.05
2022-08-21T21:16:03.372Z,32.16
2022-08-21T21:18:14.124Z,32.38
2022-08-21T21:20:25.021Z,32.39
2022-08-21T21:22:31.524Z,33.03
2022-08-21T21:24:37.967Z,32.24
2022-08-21T21:26:48.920Z,32.78
2022-08-21T21:28:56.069Z,33.12
2022-08-21T21:30:58.180Z,33.00
2022-08-21T21:33:00.006Z,33.04
2022-08-21T21:35:05.996Z,33.01
2022-08-21T21:37:11.606Z,33.51
2022-08-21T21:41:58.933Z,33.49
2022-08-21T21:44:17.131Z,33.63
2022-08-21T21:46:30.980Z,34.00
2022-08-21T21:48:58.819Z,34.05
2022-08-21T21:51:12.261Z,33.84
2022-08-21T21:53:28.257Z,33.69
2022-08-21T21:55:51.288Z,33.69
2022-08-21T21:58:07.812Z,33.40
2022-08-21T22:00:15.317Z,32.38
2022-08-21T22:02:32.809Z,32.51
2022-08-21T22:04:50.969Z,33.04
2022-08-21T22:06:59.571Z,32.35
2022-08-21T22:09:11.239Z,32.84
2022-08-21T22:13:51.017Z,32.91
2022-08-21T22:15:52.633Z,32.62
2022-08-21T22:18:00.483Z,31.51
2022-08-21T22:20:07.648Z,31.83
2022-08-21T22:22:16.344Z,32.09
2022-08-21T22:24:22.944Z,32.42
2022-08-21T22:26:33.474Z,32.48
2022-08-21T22:28:38.184Z,32.70
2022-08-21T22:30:45.454Z,32.60
2022-08-21T22:32:50.464Z,32.92
2022-08-21T22:35:05.365Z,33.01
2022-08-21T22:37:11.462Z,32.97
2022-08-21T22:39:17.141Z,32.77
2022-08-21T22:41:23.990Z,32.10
2022-08-21T22:43:29.614Z,32.27
2022-08-21T22:45:54.955Z,32.22
2022-08-21T22:48:05.003Z,32.04
2022-08-21T22:50:18.549Z,32.47
2022-08-21T22:52:23.586Z,34.05
2022-08-21T22:54:33.483Z,36.05
2022-08-21T22:56:40.140Z,36.61
2022-08-21T22:58:54.863Z,33.37
2022-08-21T23:01:02.784Z,33.38
2022-08-21T23:03:05.226Z,35.70
2022-08-21T23:05:20.631Z,36.04
2022-08-21T23:07:34.899Z,34.29
2022-08-21T23:09:47.862Z,34.70
2022-08-21T23:11:51.599Z,33.06
2022-08-21T23:13:54.361Z,34.47
2022-08-21T23:16:22.359Z,34.18
2022-08-21T23:18:33.080Z,35.19
2022-08-21T23:20:42.331Z,34.08
2022-08-21T23:22:53.234Z,31.18
2022-08-21T23:25:04.803Z,31.37
2022-08-21T23:27:15.462Z,31.61
2022-08-21T23:29:31.263Z,32.12
2022-08-21T23:31:39.623Z,31.96
2022-08-21T23:34:00.019Z,32.16
2022-08-21T23:36:11.693Z,32.23
2022-08-21T23:38:27.658Z,32.01
2022-08-21T23:40:40.985Z,33.74
2022-08-21T23:43:03.753Z,32.99
2022-08-21T23:45:14.721Z,32.93
2022-08-21T23:47:33.052Z,33.91
2022-08-21T23:49:47.639Z,33.70
2022-08-21T23:52:10.103Z,32.71
2022-08-21T23:54:19.665Z,32.90
2022-08-21T23:56:43.695Z,33.20
2022-08-21T23:58:52.653Z,33.48
